Aviation Digital Data Service (ADDS)

Output produced by METARs form (0618 UTC 19 February 2019)
found at http://www.aviationweather.gov/metar/data/
 
METAR text: ESSA 190550Z 23009KT 5000 -RA BKN006 05/04 Q1000 R01L/09//95 R08/09//95 R01R/09//95 NOSIG
Conditions at: ESSA (STOCKHOLM/ARLAND, SE) observed 0550 UTC 19 February 2019
Temperature: 5.0°C (41°F)
Dewpoint: 4.0°C (39°F) [RH = 93%]
Pressure (altimeter): 29.53 inches Hg (1000.0 mb)
Winds: from the SW (230 degrees) at 10 MPH (9 knots; 4.6 m/s)
Visibility: 3 miles ( 5 km)
Ceiling: 600 feet AGL
Clouds: broken clouds at 600 feet AGL
Weather: -RA  (light rain)

METAR text: ESSA 190520Z 19009KT 6000 BR OVC008 04/04 Q1000 R01L/09//95 R08/09//95 R01R/09//95 NOSIG
Conditions at: ESSA (STOCKHOLM/ARLAND, SE) observed 0520 UTC 19 February 2019
Temperature: 4.0°C (39°F)
Dewpoint: 4.0°C (39°F) [RH = 100%]
Pressure (altimeter): 29.53 inches Hg (1000.0 mb)
Winds: from the S (190 degrees) at 10 MPH (9 knots; 4.6 m/s)
Visibility: 4 miles ( 6 km)
Ceiling: 800 feet AGL
Clouds: overcast cloud deck at 800 feet AGL
Weather: BR  (mist)

METAR text: ESSA 190450Z 18011KT 6000 OVC007 04/03 Q1001 R01L/09//95 R08/09//95 R01R/09//95 NOSIG
Conditions at: ESSA (STOCKHOLM/ARLAND, SE) observed 0450 UTC 19 February 2019
Temperature: 4.0°C (39°F)
Dewpoint: 3.0°C (37°F) [RH = 93%]
Pressure (altimeter): 29.56 inches Hg (1001.0 mb)
Winds: from the S (180 degrees) at 13 MPH (11 knots; 5.7 m/s)
Visibility: 4 miles ( 6 km)
Ceiling: 700 feet AGL
Clouds: overcast cloud deck at 700 feet AGL
Weather: no significant weather observed at this time

METAR text: ESSA 190420Z 18010KT 7000 BKN007 04/03 Q1001 R01L/09//95 R08/09//95 R01R/09//95 NOSIG
Conditions at: ESSA (STOCKHOLM/ARLAND, SE) observed 0420 UTC 19 February 2019
Temperature: 4.0°C (39°F)
Dewpoint: 3.0°C (37°F) [RH = 93%]
Pressure (altimeter): 29.56 inches Hg (1001.0 mb)
Winds: from the S (180 degrees) at 12 MPH (10 knots; 5.1 m/s)
Visibility: 4 miles ( 7 km)
Ceiling: 700 feet AGL
Clouds: broken clouds at 700 feet AGL
Weather: no significant weather observed at this time

METAR text: ESSA 190350Z 19009KT 8000 SCT007 BKN010 04/03 Q1002 R01L/09//95 R08/09//95 R01R/09//95 NOSIG
Conditions at: ESSA (STOCKHOLM/ARLAND, SE) observed 0350 UTC 19 February 2019
Temperature: 4.0°C (39°F)
Dewpoint: 3.0°C (37°F) [RH = 93%]
Pressure (altimeter): 29.59 inches Hg (1002.0 mb)
Winds: from the S (190 degrees) at 10 MPH (9 knots; 4.6 m/s)
Visibility: 5 miles ( 8 km)
Ceiling: 1000 feet AGL
Clouds: scattered clouds at 700 feet AGL
broken clouds at 1000 feet AGL
Weather: no significant weather observed at this time

METAR text: ESSA 190320Z 23009KT 9000 FEW009 OVC013 04/03 Q1002 R01L/09//95 R08/09//95 R01R/09//95 NOSIG
Conditions at: ESSA (STOCKHOLM/ARLAND, SE) observed 0320 UTC 19 February 2019
Temperature: 4.0°C (39°F)
Dewpoint: 3.0°C (37°F) [RH = 93%]
Pressure (altimeter): 29.59 inches Hg (1002.0 mb)
Winds: from the SW (230 degrees) at 10 MPH (9 knots; 4.6 m/s)
Visibility: 6 miles ( 9 km)
Ceiling: 1300 feet AGL
Clouds: few clouds at 900 feet AGL
overcast cloud deck at 1300 feet AGL
Weather: no significant weather observed at this time

METAR text: ESSA 190250Z 20008KT 9000 OVC010 05/03 Q1003 R01L/09//95 R08/09//95 R01R/09//95 NOSIG
Conditions at: ESSA (STOCKHOLM/ARLAND, SE) observed 0250 UTC 19 February 2019
Temperature: 5.0°C (41°F)
Dewpoint: 3.0°C (37°F) [RH = 87%]
Pressure (altimeter): 29.62 inches Hg (1003.0 mb)
Winds: from the SSW (200 degrees) at 9 MPH (8 knots; 4.1 m/s)
Visibility: 6 miles ( 9 km)
Ceiling: 1000 feet AGL
Clouds: overcast cloud deck at 1000 feet AGL
Weather: no significant weather observed at this time

METAR text: ESSA 190220Z 21010KT 9000 OVC010 05/03 Q1003 R01L/09//95 R08/09//95 R01R/09//95 NOSIG
Conditions at: ESSA (STOCKHOLM/ARLAND, SE) observed 0220 UTC 19 February 2019
Temperature: 5.0°C (41°F)
Dewpoint: 3.0°C (37°F) [RH = 87%]
Pressure (altimeter): 29.62 inches Hg (1003.0 mb)
Winds: from the SSW (210 degrees) at 12 MPH (10 knots; 5.1 m/s)
Visibility: 6 miles ( 9 km)
Ceiling: 1000 feet AGL
Clouds: overcast cloud deck at 1000 feet AGL
Weather: no significant weather observed at this time

METAR text: ESSA 190150Z 20010KT 9000 OVC012 05/03 Q1004 R01L/09//95 R08/09//95 R01R/09//95 NOSIG
Conditions at: ESSA (STOCKHOLM/ARLAND, SE) observed 0150 UTC 19 February 2019
Temperature: 5.0°C (41°F)
Dewpoint: 3.0°C (37°F) [RH = 87%]
Pressure (altimeter): 29.65 inches Hg (1004.0 mb)
Winds: from the SSW (200 degrees) at 12 MPH (10 knots; 5.1 m/s)
Visibility: 6 miles ( 9 km)
Ceiling: 1200 feet AGL
Clouds: overcast cloud deck at 1200 feet AGL
Weather: no significant weather observed at this time

METAR text: ESSA 190120Z 20010KT 9000 BR OVC016 05/03 Q1004 R01L/09//95 R08/09//95 R01R/09//95 NOSIG
Conditions at: ESSA (STOCKHOLM/ARLAND, SE) observed 0120 UTC 19 February 2019
Temperature: 5.0°C (41°F)
Dewpoint: 3.0°C (37°F) [RH = 87%]
Pressure (altimeter): 29.65 inches Hg (1004.0 mb)
Winds: from the SSW (200 degrees) at 12 MPH (10 knots; 5.1 m/s)
Visibility: 6 miles ( 9 km)
Ceiling: 1600 feet AGL
Clouds: overcast cloud deck at 1600 feet AGL
Weather: BR  (mist)

METAR text: ESSA 190050Z 22008KT 9999 BKN019 05/03 Q1005 R01L/09//95 R08/09//95 R01R/09//95 NOSIG
Conditions at: ESSA (STOCKHOLM/ARLAND, SE) observed 0050 UTC 19 February 2019
Temperature: 5.0°C (41°F)
Dewpoint: 3.0°C (37°F) [RH = 87%]
Pressure (altimeter): 29.68 inches Hg (1005.0 mb)
Winds: from the SW (220 degrees) at 9 MPH (8 knots; 4.1 m/s)
Visibility: 6 or more miles (10+ km)
Ceiling: 1900 feet AGL
Clouds: broken clouds at 1900 feet AGL
Weather: no significant weather observed at this time

METAR text: ESSA 190020Z 23009KT 9999 OVC017 05/03 Q1005 R01L/09//95 R08/09//95 R01R/09//95 NOSIG
Conditions at: ESSA (STOCKHOLM/ARLAND, SE) observed 0020 UTC 19 February 2019
Temperature: 5.0°C (41°F)
Dewpoint: 3.0°C (37°F) [RH = 87%]
Pressure (altimeter): 29.68 inches Hg (1005.0 mb)
Winds: from the SW (230 degrees) at 10 MPH (9 knots; 4.6 m/s)
Visibility: 6 or more miles (10+ km)
Ceiling: 1700 feet AGL
Clouds: overcast cloud deck at 1700 feet AGL
Weather: no significant weather observed at this time

METAR text: ESSA 182350Z 20010KT 9999 OVC017 05/03 Q1006 R01L/09//95 R08/09//95 R01R/09//95 NOSIG
Conditions at: ESSA (STOCKHOLM/ARLAND, SE) observed 2350 UTC 18 February 2019
Temperature: 5.0°C (41°F)
Dewpoint: 3.0°C (37°F) [RH = 87%]
Pressure (altimeter): 29.70 inches Hg (1006.0 mb)
Winds: from the SSW (200 degrees) at 12 MPH (10 knots; 5.1 m/s)
Visibility: 6 or more miles (10+ km)
Ceiling: 1700 feet AGL
Clouds: overcast cloud deck at 1700 feet AGL
Weather: no significant weather observed at this time

METAR text: ESSA 182320Z 23011KT 9999 OVC020 05/03 Q1006 R01L/09//95 R08/09//95 R01R/09//95 NOSIG
Conditions at: ESSA (STOCKHOLM/ARLAND, SE) observed 2320 UTC 18 February 2019
Temperature: 5.0°C (41°F)
Dewpoint: 3.0°C (37°F) [RH = 87%]
Pressure (altimeter): 29.70 inches Hg (1006.0 mb)
Winds: from the SW (230 degrees) at 13 MPH (11 knots; 5.7 m/s)
Visibility: 6 or more miles (10+ km)
Ceiling: 2000 feet AGL
Clouds: overcast cloud deck at 2000 feet AGL
Weather: no significant weather observed at this time

METAR text: ESSA 182250Z 23011KT 9999 OVC021 05/03 Q1006 R01L/09//95 R08/09//95 R01R/09//95 NOSIG
Conditions at: ESSA (STOCKHOLM/ARLAND, SE) observed 2250 UTC 18 February 2019
Temperature: 5.0°C (41°F)
Dewpoint: 3.0°C (37°F) [RH = 87%]
Pressure (altimeter): 29.70 inches Hg (1006.0 mb)
Winds: from the SW (230 degrees) at 13 MPH (11 knots; 5.7 m/s)
Visibility: 6 or more miles (10+ km)
Ceiling: 2100 feet AGL
Clouds: overcast cloud deck at 2100 feet AGL
Weather: no significant weather observed at this time

METAR text: ESSA 182220Z 23009KT 9999 OVC020 05/03 Q1006 R01L/09//95 R08/09//95 R01R/09//95 NOSIG
Conditions at: ESSA (STOCKHOLM/ARLAND, SE) observed 2220 UTC 18 February 2019
Temperature: 5.0°C (41°F)
Dewpoint: 3.0°C (37°F) [RH = 87%]
Pressure (altimeter): 29.70 inches Hg (1006.0 mb)
Winds: from the SW (230 degrees) at 10 MPH (9 knots; 4.6 m/s)
Visibility: 6 or more miles (10+ km)
Ceiling: 2000 feet AGL
Clouds: overcast cloud deck at 2000 feet AGL
Weather: no significant weather observed at this time

METAR text: ESSA 182150Z 23009KT 9999 OVC020 05/03 Q1006 R01L/09//95 R08/09//95 R01R/09//95 NOSIG
Conditions at: ESSA (STOCKHOLM/ARLAND, SE) observed 2150 UTC 18 February 2019
Temperature: 5.0°C (41°F)
Dewpoint: 3.0°C (37°F) [RH = 87%]
Pressure (altimeter): 29.70 inches Hg (1006.0 mb)
Winds: from the SW (230 degrees) at 10 MPH (9 knots; 4.6 m/s)
Visibility: 6 or more miles (10+ km)
Ceiling: 2000 feet AGL
Clouds: overcast cloud deck at 2000 feet AGL
Weather: no significant weather observed at this time

METAR text: ESSA 182120Z 23009KT 9999 OVC020 05/03 Q1007 R01L/09//95 R08/09//95 R01R/09//95 NOSIG
Conditions at: ESSA (STOCKHOLM/ARLAND, SE) observed 2120 UTC 18 February 2019
Temperature: 5.0°C (41°F)
Dewpoint: 3.0°C (37°F) [RH = 87%]
Pressure (altimeter): 29.73 inches Hg (1007.0 mb)
Winds: from the SW (230 degrees) at 10 MPH (9 knots; 4.6 m/s)
Visibility: 6 or more miles (10+ km)
Ceiling: 2000 feet AGL
Clouds: overcast cloud deck at 2000 feet AGL
Weather: no significant weather observed at this time

METAR text: ESSA 182050Z 23009KT 9999 OVC021 05/03 Q1007 R01L/09//95 R08/09//95 R01R/09//95 NOSIG
Conditions at: ESSA (STOCKHOLM/ARLAND, SE) observed 2050 UTC 18 February 2019
Temperature: 5.0°C (41°F)
Dewpoint: 3.0°C (37°F) [RH = 87%]
Pressure (altimeter): 29.73 inches Hg (1007.0 mb)
Winds: from the SW (230 degrees) at 10 MPH (9 knots; 4.6 m/s)
Visibility: 6 or more miles (10+ km)
Ceiling: 2100 feet AGL
Clouds: overcast cloud deck at 2100 feet AGL
Weather: no significant weather observed at this time

METAR text: ESSA 182020Z 20009KT 9999 OVC022 05/03 Q1007 R01L/09//95 R08/09//95 R01R/09//95 NOSIG
Conditions at: ESSA (STOCKHOLM/ARLAND, SE) observed 2020 UTC 18 February 2019
Temperature: 5.0°C (41°F)
Dewpoint: 3.0°C (37°F) [RH = 87%]
Pressure (altimeter): 29.73 inches Hg (1007.0 mb)
Winds: from the SSW (200 degrees) at 10 MPH (9 knots; 4.6 m/s)
Visibility: 6 or more miles (10+ km)
Ceiling: 2200 feet AGL
Clouds: overcast cloud deck at 2200 feet AGL
Weather: no significant weather observed at this time

METAR text: ESSA 181950Z 18009KT 9999 BKN026 05/03 Q1007 R01L/09//95 R08/09//95 R01R/09//95 NOSIG
Conditions at: ESSA (STOCKHOLM/ARLAND, SE) observed 1950 UTC 18 February 2019
Temperature: 5.0°C (41°F)
Dewpoint: 3.0°C (37°F) [RH = 87%]
Pressure (altimeter): 29.73 inches Hg (1007.0 mb)
Winds: from the S (180 degrees) at 10 MPH (9 knots; 4.6 m/s)
Visibility: 6 or more miles (10+ km)
Ceiling: 2600 feet AGL
Clouds: broken clouds at 2600 feet AGL
Weather: no significant weather observed at this time

METAR text: ESSA 181920Z 23010KT 9999 BKN026 05/03 Q1007 R01L/09//95 R08/09//95 R01R/09//95 NOSIG
Conditions at: ESSA (STOCKHOLM/ARLAND, SE) observed 1920 UTC 18 February 2019
Temperature: 5.0°C (41°F)
Dewpoint: 3.0°C (37°F) [RH = 87%]
Pressure (altimeter): 29.73 inches Hg (1007.0 mb)
Winds: from the SW (230 degrees) at 12 MPH (10 knots; 5.1 m/s)
Visibility: 6 or more miles (10+ km)
Ceiling: 2600 feet AGL
Clouds: broken clouds at 2600 feet AGL
Weather: no significant weather observed at this time

METAR text: ESSA 181850Z 23009KT 9999 BKN024 05/03 Q1008 R01L/09//95 R08/09//95 R01R/09//95 NOSIG
Conditions at: ESSA (STOCKHOLM/ARLAND, SE) observed 1850 UTC 18 February 2019
Temperature: 5.0°C (41°F)
Dewpoint: 3.0°C (37°F) [RH = 87%]
Pressure (altimeter): 29.76 inches Hg (1008.0 mb)
Winds: from the SW (230 degrees) at 10 MPH (9 knots; 4.6 m/s)
Visibility: 6 or more miles (10+ km)
Ceiling: 2400 feet AGL
Clouds: broken clouds at 2400 feet AGL
Weather: no significant weather observed at this time

METAR text: ESSA 181820Z 21009KT 9999 OVC022 06/04 Q1008 R01L/09//95 R08/09//95 R01R/09//95 NOSIG
Conditions at: ESSA (STOCKHOLM/ARLAND, SE) observed 1820 UTC 18 February 2019
Temperature: 6.0°C (43°F)
Dewpoint: 4.0°C (39°F) [RH = 87%]
Pressure (altimeter): 29.76 inches Hg (1008.0 mb)
Winds: from the SSW (210 degrees) at 10 MPH (9 knots; 4.6 m/s)
Visibility: 6 or more miles (10+ km)
Ceiling: 2200 feet AGL
Clouds: overcast cloud deck at 2200 feet AGL
Weather: no significant weather observed at this time

METAR text: ESSA 181750Z 20009KT 9999 OVC021 06/04 Q1008 R01L/09//95 R08/09//95 R01R/09//95 NOSIG
Conditions at: ESSA (STOCKHOLM/ARLAND, SE) observed 1750 UTC 18 February 2019
Temperature: 6.0°C (43°F)
Dewpoint: 4.0°C (39°F) [RH = 87%]
Pressure (altimeter): 29.76 inches Hg (1008.0 mb)
Winds: from the SSW (200 degrees) at 10 MPH (9 knots; 4.6 m/s)
Visibility: 6 or more miles (10+ km)
Ceiling: 2100 feet AGL
Clouds: overcast cloud deck at 2100 feet AGL
Weather: no significant weather observed at this time

METAR text: ESSA 181720Z 20011KT 8000 OVC020 05/04 Q1008 R01L/09//95 R08/09//95 R01R/09//95 NOSIG
Conditions at: ESSA (STOCKHOLM/ARLAND, SE) observed 1720 UTC 18 February 2019
Temperature: 5.0°C (41°F)
Dewpoint: 4.0°C (39°F) [RH = 93%]
Pressure (altimeter): 29.76 inches Hg (1008.0 mb)
Winds: from the SSW (200 degrees) at 13 MPH (11 knots; 5.7 m/s)
Visibility: 5 miles ( 8 km)
Ceiling: 2000 feet AGL
Clouds: overcast cloud deck at 2000 feet AGL
Weather: no significant weather observed at this time

METAR text: ESSA 181650Z 20011KT 7000 BKN020 05/04 Q1008 R01L/09//95 R08/09//95 R01R/09//95 NOSIG
Conditions at: ESSA (STOCKHOLM/ARLAND, SE) observed 1650 UTC 18 February 2019
Temperature: 5.0°C (41°F)
Dewpoint: 4.0°C (39°F) [RH = 93%]
Pressure (altimeter): 29.76 inches Hg (1008.0 mb)
Winds: from the SSW (200 degrees) at 13 MPH (11 knots; 5.7 m/s)
Visibility: 4 miles ( 7 km)
Ceiling: 2000 feet AGL
Clouds: broken clouds at 2000 feet AGL
Weather: no significant weather observed at this time

METAR text: ESSA 181620Z 20010KT 7000 SCT018 BKN035 05/03 Q1009 R01L/09//95 R08/09//95 R01R/09//95 NOSIG
Conditions at: ESSA (STOCKHOLM/ARLAND, SE) observed 1620 UTC 18 February 2019
Temperature: 5.0°C (41°F)
Dewpoint: 3.0°C (37°F) [RH = 87%]
Pressure (altimeter): 29.79 inches Hg (1009.0 mb)
Winds: from the SSW (200 degrees) at 12 MPH (10 knots; 5.1 m/s)
Visibility: 4 miles ( 7 km)
Ceiling: 3500 feet AGL
Clouds: scattered clouds at 1800 feet AGL
broken clouds at 3500 feet AGL
Weather: no significant weather observed at this time

METAR text: ESSA 181550Z 19009KT 9999 BKN009 OVC025 05/03 Q1009 R01L/09//95 R08/09//95 R01R/09//95 NOSIG
Conditions at: ESSA (STOCKHOLM/ARLAND, SE) observed 1550 UTC 18 February 2019
Temperature: 5.0°C (41°F)
Dewpoint: 3.0°C (37°F) [RH = 87%]
Pressure (altimeter): 29.79 inches Hg (1009.0 mb)
Winds: from the S (190 degrees) at 10 MPH (9 knots; 4.6 m/s)
Visibility: 6 or more miles (10+ km)
Ceiling: 900 feet AGL
Clouds: broken clouds at 900 feet AGL
overcast cloud deck at 2500 feet AGL
Weather: no significant weather observed at this time

METAR text: ESSA 181520Z 22009KT 9000 OVC009 05/03 Q1009 R01L/09//95 R08/09//95 R01R/09//95 NOSIG
Conditions at: ESSA (STOCKHOLM/ARLAND, SE) observed 1520 UTC 18 February 2019
Temperature: 5.0°C (41°F)
Dewpoint: 3.0°C (37°F) [RH = 87%]
Pressure (altimeter): 29.79 inches Hg (1009.0 mb)
Winds: from the SW (220 degrees) at 10 MPH (9 knots; 4.6 m/s)
Visibility: 6 miles ( 9 km)
Ceiling: 900 feet AGL
Clouds: overcast cloud deck at 900 feet AGL
Weather: no significant weather observed at this time

METAR text: ESSA 181450Z 23011KT 9000 OVC009 05/03 Q1009 R01L/09//95 R08/09//95 R01R/09//95 BECMG BKN015
Conditions at: ESSA (STOCKHOLM/ARLAND, SE) observed 1450 UTC 18 February 2019
Temperature: 5.0°C (41°F)
Dewpoint: 3.0°C (37°F) [RH = 87%]
Pressure (altimeter): 29.79 inches Hg (1009.0 mb)
Winds: from the SW (230 degrees) at 13 MPH (11 knots; 5.7 m/s)
Visibility: 6 miles ( 9 km)
Ceiling: 900 feet AGL
Clouds: overcast cloud deck at 900 feet AGL
Weather: no significant weather observed at this time

METAR text: ESSA 181420Z 23012KT 9999 OVC010 05/03 Q1010 R01L/09//95 R08/09//95 R01R/09//95 BECMG BKN015
Conditions at: ESSA (STOCKHOLM/ARLAND, SE) observed 1420 UTC 18 February 2019
Temperature: 5.0°C (41°F)
Dewpoint: 3.0°C (37°F) [RH = 87%]
Pressure (altimeter): 29.82 inches Hg (1010.0 mb)
Winds: from the SW (230 degrees) at 14 MPH (12 knots; 6.2 m/s)
Visibility: 6 or more miles (10+ km)
Ceiling: 1000 feet AGL
Clouds: overcast cloud deck at 1000 feet AGL
Weather: no significant weather observed at this time

METAR text: ESSA 181350Z 22012KT 9999 OVC010 05/03 Q1010 R01L/09//95 R08/09//95 R01R/09//95 BECMG BKN015
Conditions at: ESSA (STOCKHOLM/ARLAND, SE) observed 1350 UTC 18 February 2019
Temperature: 5.0°C (41°F)
Dewpoint: 3.0°C (37°F) [RH = 87%]
Pressure (altimeter): 29.82 inches Hg (1010.0 mb)
Winds: from the SW (220 degrees) at 14 MPH (12 knots; 6.2 m/s)
Visibility: 6 or more miles (10+ km)
Ceiling: 1000 feet AGL
Clouds: overcast cloud deck at 1000 feet AGL
Weather: no significant weather observed at this time

METAR text: ESSA 181320Z 24014KT 9999 BKN010 05/03 Q1010 R01L/09//95 R08/09//95 R01R/09//95 NOSIG
Conditions at: ESSA (STOCKHOLM/ARLAND, SE) observed 1320 UTC 18 February 2019
Temperature: 5.0°C (41°F)
Dewpoint: 3.0°C (37°F) [RH = 87%]
Pressure (altimeter): 29.82 inches Hg (1010.0 mb)
Winds: from the WSW (240 degrees) at 16 MPH (14 knots; 7.2 m/s)
Visibility: 6 or more miles (10+ km)
Ceiling: 1000 feet AGL
Clouds: broken clouds at 1000 feet AGL
Weather: no significant weather observed at this time

METAR text: ESSA 181250Z 23014KT 9999 BKN009 05/03 Q1011 R01L/09//95 R08/09//95 R01R/09//95 NOSIG
Conditions at: ESSA (STOCKHOLM/ARLAND, SE) observed 1250 UTC 18 February 2019
Temperature: 5.0°C (41°F)
Dewpoint: 3.0°C (37°F) [RH = 87%]
Pressure (altimeter): 29.85 inches Hg (1011.0 mb)
Winds: from the SW (230 degrees) at 16 MPH (14 knots; 7.2 m/s)
Visibility: 6 or more miles (10+ km)
Ceiling: 900 feet AGL
Clouds: broken clouds at 900 feet AGL
Weather: no significant weather observed at this time

METAR text: ESSA 181220Z 23016KT 9999 BKN007 04/02 Q1011 R01L/09//95 R08/09//95 R01R/09//95 NOSIG
Conditions at: ESSA (STOCKHOLM/ARLAND, SE) observed 1220 UTC 18 February 2019
Temperature: 4.0°C (39°F)
Dewpoint: 2.0°C (36°F) [RH = 87%]
Pressure (altimeter): 29.85 inches Hg (1011.0 mb)
Winds: from the SW (230 degrees) at 18 MPH (16 knots; 8.2 m/s)
Visibility: 6 or more miles (10+ km)
Ceiling: 700 feet AGL
Clouds: broken clouds at 700 feet AGL
Weather: no significant weather observed at this time

METAR text: ESSA 181150Z 23015KT 170V250 9999 BKN006 03/02 Q1012 R01L/19//95 R08/19//95 R01R/19//95 NOSIG
Conditions at: ESSA (STOCKHOLM/ARLAND, SE) observed 1150 UTC 18 February 2019
Temperature: 3.0°C (37°F)
Dewpoint: 2.0°C (36°F) [RH = 93%]
Pressure (altimeter): 29.88 inches Hg (1012.0 mb)
Winds: from the SW (230 degrees) at 17 MPH (15 knots; 7.7 m/s)
Visibility: 6 or more miles (10+ km)
Ceiling: 600 feet AGL
Clouds: broken clouds at 600 feet AGL
Weather: no significant weather observed at this time

METAR text: ESSA 181120Z 22014KT 9999 BKN006 03/02 Q1012 R01L/19//95 R08/19//95 R01R/19//95 BECMG BKN010
Conditions at: ESSA (STOCKHOLM/ARLAND, SE) observed 1120 UTC 18 February 2019
Temperature: 3.0°C (37°F)
Dewpoint: 2.0°C (36°F) [RH = 93%]
Pressure (altimeter): 29.88 inches Hg (1012.0 mb)
Winds: from the SW (220 degrees) at 16 MPH (14 knots; 7.2 m/s)
Visibility: 6 or more miles (10+ km)
Ceiling: 600 feet AGL
Clouds: broken clouds at 600 feet AGL
Weather: no significant weather observed at this time

METAR text: ESSA 181050Z 18012KT 9999 BKN006 03/02 Q1013 R01L/19//95 R08/19//95 R01R/19//95 BECMG BKN010
Conditions at: ESSA (STOCKHOLM/ARLAND, SE) observed 1050 UTC 18 February 2019
Temperature: 3.0°C (37°F)
Dewpoint: 2.0°C (36°F) [RH = 93%]
Pressure (altimeter): 29.91 inches Hg (1013.0 mb)
Winds: from the S (180 degrees) at 14 MPH (12 knots; 6.2 m/s)
Visibility: 6 or more miles (10+ km)
Ceiling: 600 feet AGL
Clouds: broken clouds at 600 feet AGL
Weather: no significant weather observed at this time

METAR text: ESSA 181020Z 18010KT 9999 OVC004 03/02 Q1013 R01L/19//95 R08/19//95 R01R/19//95 BECMG BKN005
Conditions at: ESSA (STOCKHOLM/ARLAND, SE) observed 1020 UTC 18 February 2019
Temperature: 3.0°C (37°F)
Dewpoint: 2.0°C (36°F) [RH = 93%]
Pressure (altimeter): 29.91 inches Hg (1013.0 mb)
Winds: from the S (180 degrees) at 12 MPH (10 knots; 5.1 m/s)
Visibility: 6 or more miles (10+ km)
Ceiling: 400 feet AGL
Clouds: overcast cloud deck at 400 feet AGL
Weather: no significant weather observed at this time

METAR text: ESSA 180950Z 19010KT 9000 BKN002 03/02 Q1013 R01L/19//95 R08/19//95 R01R/19//95 NOSIG
Conditions at: ESSA (STOCKHOLM/ARLAND, SE) observed 0950 UTC 18 February 2019
Temperature: 3.0°C (37°F)
Dewpoint: 2.0°C (36°F) [RH = 93%]
Pressure (altimeter): 29.91 inches Hg (1013.0 mb)
Winds: from the S (190 degrees) at 12 MPH (10 knots; 5.1 m/s)
Visibility: 6 miles ( 9 km)
Ceiling: 200 feet AGL
Clouds: broken clouds at 200 feet AGL
Weather: no significant weather observed at this time

METAR text: ESSA 180920Z 18011KT 1900 BR BKN002 02/02 Q1014 R01L/19//95 R08/19//95 R01R/19//95 TEMPO 5000
Conditions at: ESSA (STOCKHOLM/ARLAND, SE) observed 0920 UTC 18 February 2019
Temperature: 2.0°C (36°F)
Dewpoint: 2.0°C (36°F) [RH = 100%]
Pressure (altimeter): 29.94 inches Hg (1014.0 mb)
Winds: from the S (180 degrees) at 13 MPH (11 knots; 5.7 m/s)
Visibility: 1.18 miles (1.90 km)
Ceiling: 200 feet AGL
Clouds: broken clouds at 200 feet AGL
Weather: BR  (mist)

METAR text: ESSA 180850Z 18012KT 1800 BR OVC002 02/02 Q1015 R01L/19//95 R08/19//95 R01R/19//95 TEMPO 2000 BR
Conditions at: ESSA (STOCKHOLM/ARLAND, SE) observed 0850 UTC 18 February 2019
Temperature: 2.0°C (36°F)
Dewpoint: 2.0°C (36°F) [RH = 100%]
Pressure (altimeter): 29.97 inches Hg (1015.0 mb)
Winds: from the S (180 degrees) at 14 MPH (12 knots; 6.2 m/s)
Visibility: 1.12 miles (1.80 km)
Ceiling: 200 feet AGL
Clouds: overcast cloud deck at 200 feet AGL
Weather: BR  (mist)

METAR text: ESSA 180820Z 19012KT 5000 OVC002 02/02 Q1015 R01L/19//95 R08/19//95 R01R/19//95 BECMG BKN005
Conditions at: ESSA (STOCKHOLM/ARLAND, SE) observed 0820 UTC 18 February 2019
Temperature: 2.0°C (36°F)
Dewpoint: 2.0°C (36°F) [RH = 100%]
Pressure (altimeter): 29.97 inches Hg (1015.0 mb)
Winds: from the S (190 degrees) at 14 MPH (12 knots; 6.2 m/s)
Visibility: 3 miles ( 5 km)
Ceiling: 200 feet AGL
Clouds: overcast cloud deck at 200 feet AGL
Weather: no significant weather observed at this time

METAR text: ESSA 180750Z 21012KT 3500 BR OVC004 02/02 Q1015 R01L/19//95 R08/19//95 R01R/19//95 BECMG BKN005
Conditions at: ESSA (STOCKHOLM/ARLAND, SE) observed 0750 UTC 18 February 2019
Temperature: 2.0°C (36°F)
Dewpoint: 2.0°C (36°F) [RH = 100%]
Pressure (altimeter): 29.97 inches Hg (1015.0 mb)
Winds: from the SSW (210 degrees) at 14 MPH (12 knots; 6.2 m/s)
Visibility: 2.17 miles (3.49 km)
Ceiling: 400 feet AGL
Clouds: overcast cloud deck at 400 feet AGL
Weather: BR  (mist)

METAR text: ESSA 180720Z 18011KT 9000 OVC004 03/02 Q1015 R01L/19//95 R08/19//95 R01R/19//95 BECMG BKN005
Conditions at: ESSA (STOCKHOLM/ARLAND, SE) observed 0720 UTC 18 February 2019
Temperature: 3.0°C (37°F)
Dewpoint: 2.0°C (36°F) [RH = 93%]
Pressure (altimeter): 29.97 inches Hg (1015.0 mb)
Winds: from the S (180 degrees) at 13 MPH (11 knots; 5.7 m/s)
Visibility: 6 miles ( 9 km)
Ceiling: 400 feet AGL
Clouds: overcast cloud deck at 400 feet AGL
Weather: no significant weather observed at this time

METAR text: ESSA 180650Z 18011KT 3500 BR OVC002 02/02 Q1015 R01L/19//95 R08/19//95 R01R/19//95 NOSIG
Conditions at: ESSA (STOCKHOLM/ARLAND, SE) observed 0650 UTC 18 February 2019
Temperature: 2.0°C (36°F)
Dewpoint: 2.0°C (36°F) [RH = 100%]
Pressure (altimeter): 29.97 inches Hg (1015.0 mb)
Winds: from the S (180 degrees) at 13 MPH (11 knots; 5.7 m/s)
Visibility: 2.17 miles (3.49 km)
Ceiling: 200 feet AGL
Clouds: overcast cloud deck at 200 feet AGL
Weather: BR  (mist)

METAR text: ESSA 180620Z 17011KT 1500 BR BKN002 02/02 Q1016 R01L/19//95 R08/19//95 R01R/19//95 NOSIG
Conditions at: ESSA (STOCKHOLM/ARLAND, SE) observed 0620 UTC 18 February 2019
Temperature: 2.0°C (36°F)
Dewpoint: 2.0°C (36°F) [RH = 100%]
Pressure (altimeter): 30.00 inches Hg (1016.0 mb)
Winds: from the S (170 degrees) at 13 MPH (11 knots; 5.7 m/s)
Visibility: 0.93 miles (1.50 km)
Ceiling: 200 feet AGL
Clouds: broken clouds at 200 feet AGL
Weather: BR  (mist)

METAR text: ESSA 180550Z 16009KT 6000 OVC003 02/01 Q1016 R01L/19//95 R08/19//95 R01R/19//95 NOSIG
Conditions at: ESSA (STOCKHOLM/ARLAND, SE) observed 0550 UTC 18 February 2019
Temperature: 2.0°C (36°F)
Dewpoint: 1.0°C (34°F) [RH = 93%]
Pressure (altimeter): 30.00 inches Hg (1016.0 mb)
Winds: from the SSE (160 degrees) at 10 MPH (9 knots; 4.6 m/s)
Visibility: 4 miles ( 6 km)
Ceiling: 300 feet AGL
Clouds: overcast cloud deck at 300 feet AGL
Weather: no significant weather observed at this time

METAR text: ESSA 180520Z 17009KT 8000 OVC004 02/01 Q1016 R01L/19//95 R08/19//95 R01R/19//95 NOSIG
Conditions at: ESSA (STOCKHOLM/ARLAND, SE) observed 0520 UTC 18 February 2019
Temperature: 2.0°C (36°F)
Dewpoint: 1.0°C (34°F) [RH = 93%]
Pressure (altimeter): 30.00 inches Hg (1016.0 mb)
Winds: from the S (170 degrees) at 10 MPH (9 knots; 4.6 m/s)
Visibility: 5 miles ( 8 km)
Ceiling: 400 feet AGL
Clouds: overcast cloud deck at 400 feet AGL
Weather: no significant weather observed at this time

METAR text: ESSA 180450Z 17007KT 9999 BKN006 02/00 Q1017 R01L/19//95 R08/19//95 R01R/19//95 NOSIG
Conditions at: ESSA (STOCKHOLM/ARLAND, SE) observed 0450 UTC 18 February 2019
Temperature: 2.0°C (36°F)
Dewpoint: 0.0°C (32°F) [RH = 87%]
Pressure (altimeter): 30.03 inches Hg (1017.0 mb)
Winds: from the S (170 degrees) at 8 MPH (7 knots; 3.6 m/s)
Visibility: 6 or more miles (10+ km)
Ceiling: 600 feet AGL
Clouds: broken clouds at 600 feet AGL
Weather: no significant weather observed at this time

METAR text: ESSA 180420Z 16008KT 9999 BKN014 OVC017 02/00 Q1017 R01L/19//95 R08/19//95 R01R/19//95 NOSIG
Conditions at: ESSA (STOCKHOLM/ARLAND, SE) observed 0420 UTC 18 February 2019
Temperature: 2.0°C (36°F)
Dewpoint: 0.0°C (32°F) [RH = 87%]
Pressure (altimeter): 30.03 inches Hg (1017.0 mb)
Winds: from the SSE (160 degrees) at 9 MPH (8 knots; 4.1 m/s)
Visibility: 6 or more miles (10+ km)
Ceiling: 1400 feet AGL
Clouds: broken clouds at 1400 feet AGL
overcast cloud deck at 1700 feet AGL
Weather: no significant weather observed at this time

METAR text: ESSA 180350Z 17008KT 9999 OVC013 02/M00 Q1017 R01L/19//95 R08/19//95 R01R/19//95 NOSIG
Conditions at: ESSA (STOCKHOLM/ARLAND, SE) observed 0350 UTC 18 February 2019
Temperature: 2.0°C (36°F)
Dewpoint: 0.0°C (32°F) [RH = 87%]
Pressure (altimeter): 30.03 inches Hg (1017.0 mb)
Winds: from the S (170 degrees) at 9 MPH (8 knots; 4.1 m/s)
Visibility: 6 or more miles (10+ km)
Ceiling: 1300 feet AGL
Clouds: overcast cloud deck at 1300 feet AGL
Weather: no significant weather observed at this time

METAR text: ESSA 180320Z 16007KT 9999 OVC007 02/M01 Q1018 R01L/19//95 R08/19//95 R01R/19//95 NOSIG
Conditions at: ESSA (STOCKHOLM/ARLAND, SE) observed 0320 UTC 18 February 2019
Temperature: 2.0°C (36°F)
Dewpoint: -1.0°C (30°F) [RH = 80%]
Pressure (altimeter): 30.06 inches Hg (1018.0 mb)
Winds: from the SSE (160 degrees) at 8 MPH (7 knots; 3.6 m/s)
Visibility: 6 or more miles (10+ km)
Ceiling: 700 feet AGL
Clouds: overcast cloud deck at 700 feet AGL
Weather: no significant weather observed at this time

METAR text: ESSA 180250Z 17008KT 9999 OVC008 02/M01 Q1018 R01L/19//95 R08/19//95 R01R/19//95 NOSIG
Conditions at: ESSA (STOCKHOLM/ARLAND, SE) observed 0250 UTC 18 February 2019
Temperature: 2.0°C (36°F)
Dewpoint: -1.0°C (30°F) [RH = 80%]
Pressure (altimeter): 30.06 inches Hg (1018.0 mb)
Winds: from the S (170 degrees) at 9 MPH (8 knots; 4.1 m/s)
Visibility: 6 or more miles (10+ km)
Ceiling: 800 feet AGL
Clouds: overcast cloud deck at 800 feet AGL
Weather: no significant weather observed at this time

METAR text: ESSA 180220Z 17008KT 9999 OVC009 02/M01 Q1019 R01L/19//95 R08/19//95 R01R/19//95 NOSIG
Conditions at: ESSA (STOCKHOLM/ARLAND, SE) observed 0220 UTC 18 February 2019
Temperature: 2.0°C (36°F)
Dewpoint: -1.0°C (30°F) [RH = 80%]
Pressure (altimeter): 30.09 inches Hg (1019.0 mb)
Winds: from the S (170 degrees) at 9 MPH (8 knots; 4.1 m/s)
Visibility: 6 or more miles (10+ km)
Ceiling: 900 feet AGL
Clouds: overcast cloud deck at 900 feet AGL
Weather: no significant weather observed at this time

METAR text: ESSA 180150Z 18008KT 9999 OVC010 02/M02 Q1019 R01L/19//95 R08/19//95 R01R/19//95 NOSIG
Conditions at: ESSA (STOCKHOLM/ARLAND, SE) observed 0150 UTC 18 February 2019
Temperature: 2.0°C (36°F)
Dewpoint: -2.0°C (28°F) [RH = 75%]
Pressure (altimeter): 30.09 inches Hg (1019.0 mb)
Winds: from the S (180 degrees) at 9 MPH (8 knots; 4.1 m/s)
Visibility: 6 or more miles (10+ km)
Ceiling: 1000 feet AGL
Clouds: overcast cloud deck at 1000 feet AGL
Weather: no significant weather observed at this time

METAR text: ESSA 180120Z 17009KT 9999 OVC010 02/M02 Q1019 R01L/19//95 R08/19//95 R01R/19//95 NOSIG
Conditions at: ESSA (STOCKHOLM/ARLAND, SE) observed 0120 UTC 18 February 2019
Temperature: 2.0°C (36°F)
Dewpoint: -2.0°C (28°F) [RH = 75%]
Pressure (altimeter): 30.09 inches Hg (1019.0 mb)
Winds: from the S (170 degrees) at 10 MPH (9 knots; 4.6 m/s)
Visibility: 6 or more miles (10+ km)
Ceiling: 1000 feet AGL
Clouds: overcast cloud deck at 1000 feet AGL
Weather: no significant weather observed at this time

METAR text: ESSA 180050Z 17008KT 9999 OVC010 01/M03 Q1019 R01L/19//95 R08/19//95 R01R/19//95 NOSIG
Conditions at: ESSA (STOCKHOLM/ARLAND, SE) observed 0050 UTC 18 February 2019
Temperature: 1.0°C (34°F)
Dewpoint: -3.0°C (27°F) [RH = 75%]
Pressure (altimeter): 30.09 inches Hg (1019.0 mb)
Winds: from the S (170 degrees) at 9 MPH (8 knots; 4.1 m/s)
Visibility: 6 or more miles (10+ km)
Ceiling: 1000 feet AGL
Clouds: overcast cloud deck at 1000 feet AGL
Weather: no significant weather observed at this time

METAR text: ESSA 180020Z 16007KT 9999 OVC010 01/M03 Q1019 R01L/19//95 R08/19//95 R01R/19//95 NOSIG
Conditions at: ESSA (STOCKHOLM/ARLAND, SE) observed 0020 UTC 18 February 2019
Temperature: 1.0°C (34°F)
Dewpoint: -3.0°C (27°F) [RH = 75%]
Pressure (altimeter): 30.09 inches Hg (1019.0 mb)
Winds: from the SSE (160 degrees) at 8 MPH (7 knots; 3.6 m/s)
Visibility: 6 or more miles (10+ km)
Ceiling: 1000 feet AGL
Clouds: overcast cloud deck at 1000 feet AGL
Weather: no significant weather observed at this time

METAR text: ESSA 172350Z 16007KT 9999 OVC010 01/M04 Q1019 R01L/19//95 R08/19//95 R01R/19//95 NOSIG
Conditions at: ESSA (STOCKHOLM/ARLAND, SE) observed 2350 UTC 17 February 2019
Temperature: 1.0°C (34°F)
Dewpoint: -4.0°C (25°F) [RH = 69%]
Pressure (altimeter): 30.09 inches Hg (1019.0 mb)
Winds: from the SSE (160 degrees) at 8 MPH (7 knots; 3.6 m/s)
Visibility: 6 or more miles (10+ km)
Ceiling: 1000 feet AGL
Clouds: overcast cloud deck at 1000 feet AGL
Weather: no significant weather observed at this time

METAR text: ESSA 172320Z 16006KT 9999 SCT012 BKN018 01/M04 Q1020 R01L/19//95 R08/19//95 R01R/19//95 NOSIG
Conditions at: ESSA (STOCKHOLM/ARLAND, SE) observed 2320 UTC 17 February 2019
Temperature: 1.0°C (34°F)
Dewpoint: -4.0°C (25°F) [RH = 69%]
Pressure (altimeter): 30.12 inches Hg (1020.0 mb)
Winds: from the SSE (160 degrees) at 7 MPH (6 knots; 3.1 m/s)
Visibility: 6 or more miles (10+ km)
Ceiling: 1800 feet AGL
Clouds: scattered clouds at 1200 feet AGL
broken clouds at 1800 feet AGL
Weather: no significant weather observed at this time

METAR text: ESSA 172250Z 14006KT 9999 BKN024 01/M04 Q1020 R01L/19//95 R08/19//95 R01R/19//95 NOSIG
Conditions at: ESSA (STOCKHOLM/ARLAND, SE) observed 2250 UTC 17 February 2019
Temperature: 1.0°C (34°F)
Dewpoint: -4.0°C (25°F) [RH = 69%]
Pressure (altimeter): 30.12 inches Hg (1020.0 mb)
Winds: from the SE (140 degrees) at 7 MPH (6 knots; 3.1 m/s)
Visibility: 6 or more miles (10+ km)
Ceiling: 2400 feet AGL
Clouds: broken clouds at 2400 feet AGL
Weather: no significant weather observed at this time

METAR text: ESSA 172220Z 15005KT 9999 SCT024 01/M04 Q1020 R01L/19//95 R08/19//95 R01R/19//95 NOSIG
Conditions at: ESSA (STOCKHOLM/ARLAND, SE) observed 2220 UTC 17 February 2019
Temperature: 1.0°C (34°F)
Dewpoint: -4.0°C (25°F) [RH = 69%]
Pressure (altimeter): 30.12 inches Hg (1020.0 mb)
Winds: from the SSE (150 degrees) at 6 MPH (5 knots; 2.6 m/s)
Visibility: 6 or more miles (10+ km)
Ceiling: at least 12,000 feet AGL
Clouds: scattered clouds at 2400 feet AGL
Weather: no significant weather observed at this time

METAR text: ESSA 172150Z 16005KT 9999 SCT030 01/M04 Q1020 R01L/19//95 R08/19//95 R01R/19//95 NOSIG
Conditions at: ESSA (STOCKHOLM/ARLAND, SE) observed 2150 UTC 17 February 2019
Temperature: 1.0°C (34°F)
Dewpoint: -4.0°C (25°F) [RH = 69%]
Pressure (altimeter): 30.12 inches Hg (1020.0 mb)
Winds: from the SSE (160 degrees) at 6 MPH (5 knots; 2.6 m/s)
Visibility: 6 or more miles (10+ km)
Ceiling: at least 12,000 feet AGL
Clouds: scattered clouds at 3000 feet AGL
Weather: no significant weather observed at this time

METAR text: ESSA 172120Z 16005G16KT 9999 BKN037 01/M04 Q1020 R01L/19//95 R08/19//95 R01R/19//95 NOSIG
Conditions at: ESSA (STOCKHOLM/ARLAND, SE) observed 2120 UTC 17 February 2019
Temperature: 1.0°C (34°F)
Dewpoint: -4.0°C (25°F) [RH = 69%]
Pressure (altimeter): 30.12 inches Hg (1020.0 mb)
Winds: from the SSE (160 degrees) at 6 MPH (5 knots; 2.6 m/s)
gusting to 18 MPH (16 knots; 8.2 m/s)
Visibility: 6 or more miles (10+ km)
Ceiling: 3700 feet AGL
Clouds: broken clouds at 3700 feet AGL
Weather: no significant weather observed at this time

METAR text: ESSA 172050Z 19005KT CAVOK 02/M04 Q1020 R01L/19//95 R08/19//95 R01R/19//95 NOSIG
Conditions at: ESSA (STOCKHOLM/ARLAND, SE) observed 2050 UTC 17 February 2019
Temperature: 2.0°C (36°F)
Dewpoint: -4.0°C (25°F) [RH = 64%]
Pressure (altimeter): 30.12 inches Hg (1020.0 mb)
Winds: from the S (190 degrees) at 6 MPH (5 knots; 2.6 m/s)
Visibility: 6 or more miles (10+ km)
Ceiling: ceiling and visibility are OK
Clouds: unknown
Weather: no significant weather observed at this time

METAR text: ESSA 172020Z 17004KT CAVOK 01/M04 Q1020 R01L/19//95 R08/19//95 R01R/19//95 NOSIG
Conditions at: ESSA (STOCKHOLM/ARLAND, SE) observed 2020 UTC 17 February 2019
Temperature: 1.0°C (34°F)
Dewpoint: -4.0°C (25°F) [RH = 69%]
Pressure (altimeter): 30.12 inches Hg (1020.0 mb)
Winds: from the S (170 degrees) at 5 MPH (4 knots; 2.1 m/s)
Visibility: 6 or more miles (10+ km)
Ceiling: ceiling and visibility are OK
Clouds: unknown
Weather: no significant weather observed at this time

METAR text: ESSA 171950Z 19002KT CAVOK 01/M04 Q1021 R01L/19//95 R08/19//95 R01R/19//95 NOSIG
Conditions at: ESSA (STOCKHOLM/ARLAND, SE) observed 1950 UTC 17 February 2019
Temperature: 1.0°C (34°F)
Dewpoint: -4.0°C (25°F) [RH = 69%]
Pressure (altimeter): 30.15 inches Hg (1021.0 mb)
Winds: from the S (190 degrees) at 2 MPH (2 knots; 1.0 m/s)
Visibility: 6 or more miles (10+ km)
Ceiling: ceiling and visibility are OK
Clouds: unknown
Weather: no significant weather observed at this time

METAR text: ESSA 171920Z 13004KT CAVOK 01/M04 Q1020 R01L/19//95 R08/19//95 R01R/19//95 NOSIG
Conditions at: ESSA (STOCKHOLM/ARLAND, SE) observed 1920 UTC 17 February 2019
Temperature: 1.0°C (34°F)
Dewpoint: -4.0°C (25°F) [RH = 69%]
Pressure (altimeter): 30.12 inches Hg (1020.0 mb)
Winds: from the SE (130 degrees) at 5 MPH (4 knots; 2.1 m/s)
Visibility: 6 or more miles (10+ km)
Ceiling: ceiling and visibility are OK
Clouds: unknown
Weather: no significant weather observed at this time

METAR text: ESSA 171850Z 12005KT CAVOK 01/M04 Q1020 R01L/19//95 R08/19//95 R01R/19//95 NOSIG
Conditions at: ESSA (STOCKHOLM/ARLAND, SE) observed 1850 UTC 17 February 2019
Temperature: 1.0°C (34°F)
Dewpoint: -4.0°C (25°F) [RH = 69%]
Pressure (altimeter): 30.12 inches Hg (1020.0 mb)
Winds: from the ESE (120 degrees) at 6 MPH (5 knots; 2.6 m/s)
Visibility: 6 or more miles (10+ km)
Ceiling: ceiling and visibility are OK
Clouds: unknown
Weather: no significant weather observed at this time

METAR text: ESSA 171820Z VRB02KT CAVOK 01/M04 Q1021 R01L/19//95 R08/19//95 R01R/19//95 NOSIG
Conditions at: ESSA (STOCKHOLM/ARLAND, SE) observed 1820 UTC 17 February 2019
Temperature: 1.0°C (34°F)
Dewpoint: -4.0°C (25°F) [RH = 69%]
Pressure (altimeter): 30.15 inches Hg (1021.0 mb)
Winds: variable direction winds at 2 MPH (2 knots; 1.0 m/s)
Visibility: 6 or more miles (10+ km)
Ceiling: ceiling and visibility are OK
Clouds: unknown
Weather: no significant weather observed at this time

Forecast for: ESSA (STOCKHOLM/ARLAND, SE)
Text: TAF ESSA 190530Z 1906/2006 21010KT 9999 BKN007
Forecast period: 0600 UTC 19 February 2019 to 0600 UTC 20 February 2019
Forecast type: FROM: standard forecast or significant change
Winds: from the SSW (210 degrees) at 12 MPH (10 knots; 5.1 m/s)
Visibility: 6 or more miles 10+ km)
Ceiling: 700 feet AGL
Clouds: broken clouds at 700 feet AGL
Weather: no significant weather forecast for this period
Text: BECMG 1906/1908 BKN020
Forecast period: 0600 UTC 19 February 2019 to 0000 UTC 20 February 2019
Forecast type: BECOMING: Conditions expected to become as follows by 0800 UTC 19 February 2019
Winds: from the SSW (210 degrees) at 12 MPH (10 knots; 5.1 m/s)
Visibility: 6 or more miles 10+ km)
Ceiling: 2000 feet AGL
Clouds: broken clouds at 2000 feet AGL
Weather: no significant weather forecast for this period
Text: PROB40 1906/1910 RA
Forecast period: 0600 to 1000 UTC 19 February 2019
Forecast type: PROBABLE: 40 percent likelihood of the following during this time
Visibility: missing
Ceiling: unknown
Clouds: missing
Weather: RA  (moderate rain)
Text: PROB40 1908/1922 BKN014
Forecast period: 0800 to 2200 UTC 19 February 2019
Forecast type: PROBABLE: 40 percent likelihood of the following during this time
Visibility: missing
Ceiling: 1400 feet AGL
Clouds: broken clouds at 1400 feet AGL
Weather: no significant weather forecast for this period
Text: BECMG 2000/2002 30010KT
Forecast period: 0000 to 0600 UTC 20 February 2019
Forecast type: BECOMING: Conditions expected to become as follows by 0200 UTC 20 February 2019
Winds: from the WNW (300 degrees) at 12 MPH (10 knots; 5.1 m/s)
Visibility: 6 or more miles 10+ km)
Ceiling: 2000 feet AGL
Clouds: broken clouds at 2000 feet AGL
Weather: no significant weather forecast for this period